KMML/MML METAR and TAF weather

Enter ICAO airport designator
Station Type Date Time Source
KMML METAR 2020/12/06 00:56 UTC NOAA

KMML 060056Z AUTO 36012KT 10SM FEW041 BKN075 04/M02 A3011 RMK AO2 SLP215 T00441017


Station Type Date Time Source
KMML Decoded METAR 2020/12/06 00:56 UTC NOAA

Marshall, Southwest Minnesota Regional Airport - Marshall/Ryan Field, MN, United States (KMML) 44-27N 095-49W
Dec 05, 2020 - 07:56 PM EST / 2020.12.06 0056 UTC
Wind: from the N (360 degrees) at 14 MPH (12 KT):0
Visibility: 10 mile(s):0
Sky conditions: mostly cloudy
Temperature: 39.9 F (4.4 C)
Dew Point: 28.9 F (-1.7 C)
Relative Humidity: 64%
Pressure (altimeter): 30.11 in. Hg (1019 hPa)
ob: KMML 060056Z AUTO 36012KT 10SM FEW041 BKN075 04/M02 A3011 RMK AO2 SLP215 T00441017
cycle: 1

Station Type Date Time Source
KMML TAF UTC NOAA

Error!

Example: see airport list